Time;durP1;ratioP1;P1;durP2;ratioP2;P2;SDS_P1;SDS_P2;PMS_P1;PMS_P2;Temp;Humidity;BMP_temperature;BMP_pressure;BME280_temperature;BME280_humidity;BME280_pressure;Samples;Min_cycle;Max_cycle;Signal;HPM_P1;HPM_P2
2022/07/25 00:01:34;;;;;;;7.77;7.00;;;22.40;99.90;;;;;;5044199;28;20480;-80
2022/07/25 00:04:01;;;;;;;6.77;6.07;;;22.30;99.90;;;;;;5044312;28;20838;-81
2022/07/25 00:06:28;;;;;;;6.03;5.50;;;22.30;99.90;;;;;;5045738;28;20520;-81
2022/07/25 00:08:56;;;;;;;7.73;6.93;;;22.20;99.90;;;;;;5045937;28;20564;-81
2022/07/25 00:11:23;;;;;;;7.70;6.90;;;22.20;99.90;;;;;;5051472;28;20437;-79
2022/07/25 00:13:50;;;;;;;6.93;6.27;;;22.20;99.90;;;;;;5052458;28;20452;-79
2022/07/25 00:16:17;;;;;;;8.03;7.23;;;22.10;99.90;;;;;;5051566;28;20519;-79
2022/07/25 00:18:44;;;;;;;7.63;6.83;;;22.10;99.90;;;;;;5051247;28;20537;-80
2022/07/25 00:21:11;;;;;;;10.93;7.60;;;22.10;99.90;;;;;;5051337;28;20476;-78
2022/07/25 00:23:38;;;;;;;7.30;5.90;;;22.10;99.90;;;;;;5047777;28;20861;-82
2022/07/25 00:26:06;;;;;;;7.40;6.60;;;22.00;99.90;;;;;;5048321;28;20453;-83
2022/07/25 00:28:34;;;;;;;7.30;6.60;;;22.00;99.90;;;;;;5048365;28;20924;-81
2022/07/25 00:31:01;;;;;;;9.10;6.70;;;22.00;99.90;;;;;;5047312;28;20457;-79
2022/07/25 00:33:28;;;;;;;7.40;6.63;;;22.00;99.90;;;;;;5045742;28;20455;-81
2022/07/25 00:35:55;;;;;;;7.80;7.00;;;22.00;99.90;;;;;;5037331;28;20880;-78
2022/07/25 00:38:21;;;;;;;6.23;5.63;;;21.90;99.90;;;;;;5040388;28;20509;-80
2022/07/25 00:40:48;;;;;;;7.00;5.93;;;21.90;99.90;;;;;;5042655;28;20641;-82
2022/07/25 00:43:17;;;;;;;8.03;6.10;;;22.00;99.90;;;;;;5044806;28;20445;-79
2022/07/25 00:45:44;;;;;;;6.73;6.13;;;21.90;99.90;;;;;;5045311;28;20480;-80
2022/07/25 00:48:10;;;;;;;8.63;6.13;;;21.90;99.90;;;;;;5044692;28;20473;-79
2022/07/25 00:50:37;;;;;;;9.50;6.17;;;21.90;99.90;;;;;;5045014;28;20477;-81
2022/07/25 00:53:04;;;;;;;6.57;5.87;;;21.90;99.90;;;;;;5043938;28;20983;-81
2022/07/25 00:55:32;;;;;;;6.77;5.53;;;21.90;99.90;;;;;;5045177;28;20460;-81
2022/07/25 00:58:00;;;;;;;7.40;6.53;;;21.90;99.90;;;;;;5044136;28;20464;-78
2022/07/25 01:00:28;;;;;;;6.27;5.67;;;21.90;99.90;;;;;;5044261;28;20507;-81
2022/07/25 01:02:55;;;;;;;7.10;6.00;;;21.90;99.90;;;;;;5043612;28;20457;-80
2022/07/25 01:05:22;;;;;;;7.50;5.90;;;22.00;99.90;;;;;;5044678;28;20481;-80
2022/07/25 01:07:49;;;;;;;6.90;5.53;;;22.00;99.90;;;;;;5045853;28;20480;-81
2022/07/25 01:10:15;;;;;;;9.13;5.60;;;22.00;99.90;;;;;;5044981;28;20560;-81
2022/07/25 01:12:49;;;;;;;11.43;6.23;;;22.00;99.90;;;;;;5045933;28;20461;-81
2022/07/25 01:15:17;;;;;;;7.33;6.50;;;22.00;99.90;;;;;;5047807;28;20483;-81
2022/07/25 01:17:45;;;;;;;6.43;5.53;;;22.00;99.90;;;;;;5048709;28;20929;-80
2022/07/25 01:20:16;;;;;;;6.53;5.40;;;22.00;99.90;;;;;;5047859;28;20453;-80
2022/07/25 01:22:43;;;;;;;6.27;5.63;;;22.00;99.90;;;;;;5048052;28;20491;-81
2022/07/25 01:25:10;;;;;;;6.47;5.77;;;22.00;99.90;;;;;;5048013;28;20892;-81
2022/07/25 01:27:37;;;;;;;5.87;5.00;;;21.90;99.90;;;;;;5043077;28;20476;-79
2022/07/25 01:30:06;;;;;;;7.90;5.93;;;21.90;99.90;;;;;;5040061;28;20475;-79
2022/07/25 01:32:34;;;;;;;6.40;5.80;;;21.90;99.90;;;;;;5038195;28;20540;-80
2022/07/25 01:35:01;;;;;;;8.90;6.37;;;21.90;99.90;;;;;;5038485;28;20927;-79
2022/07/25 01:37:29;;;;;;;7.30;5.90;;;21.90;99.90;;;;;;5039381;28;20496;-81
2022/07/25 01:39:56;;;;;;;7.90;6.03;;;21.90;99.90;;;;;;5038404;28;20559;-81
2022/07/25 01:42:23;;;;;;;5.90;5.23;;;21.90;99.90;;;;;;5035657;28;20489;-79
2022/07/25 01:44:50;;;;;;;8.40;5.43;;;21.90;99.90;;;;;;5038391;28;20516;-80
2022/07/25 01:47:17;;;;;;;6.67;6.07;;;21.80;99.90;;;;;;5038854;28;20531;-78
2022/07/25 01:49:44;;;;;;;6.83;6.13;;;21.80;99.90;;;;;;5039073;28;20539;-82
2022/07/25 01:52:11;;;;;;;7.97;6.00;;;21.80;99.90;;;;;;5036122;28;20833;-78
2022/07/25 01:54:40;;;;;;;7.93;5.83;;;21.80;99.90;;;;;;5036855;28;20996;-81
2022/07/25 01:57:08;;;;;;;9.43;6.70;;;21.70;99.90;;;;;;5039225;28;20973;-81
2022/07/25 01:59:38;;;;;;;8.00;5.50;;;21.70;99.90;;;;;;5038490;28;20560;-79
2022/07/25 02:02:05;;;;;;;7.83;6.87;;;21.70;99.90;;;;;;5038933;28;20861;-80
2022/07/25 02:04:32;;;;;;;8.50;5.70;;;21.70;99.90;;;;;;5038609;28;20547;-81
2022/07/25 02:06:59;;;;;;;7.27;6.20;;;21.70;99.90;;;;;;5039222;28;20457;-79
2022/07/25 02:09:27;;;;;;;7.03;6.33;;;21.70;99.90;;;;;;5039128;28;20543;-80
2022/07/25 02:11:55;;;;;;;8.07;6.67;;;21.60;99.90;;;;;;5039678;28;21044;-81
2022/07/25 02:14:22;;;;;;;7.07;5.97;;;21.60;99.90;;;;;;5043429;28;20447;-77
2022/07/25 02:16:49;;;;;;;8.00;6.30;;;21.60;99.90;;;;;;5046133;28;20480;-78
2022/07/25 02:19:16;;;;;;;6.73;6.03;;;21.60;99.90;;;;;;5038767;28;20548;-81
2022/07/25 02:21:43;;;;;;;6.73;6.00;;;21.60;99.90;;;;;;5038238;28;20483;-81
2022/07/25 02:24:10;;;;;;;6.90;5.93;;;21.60;99.90;;;;;;5036791;28;20460;-79
2022/07/25 02:26:37;;;;;;;6.80;6.10;;;21.50;99.90;;;;;;5038804;28;20547;-79
2022/07/25 02:29:05;;;;;;;7.20;6.37;;;21.50;99.90;;;;;;5037970;28;20559;-81
2022/07/25 02:31:32;;;;;;;7.27;6.07;;;21.50;99.90;;;;;;5038332;28;20894;-80
2022/07/25 02:33:59;;;;;;;8.47;6.70;;;21.50;99.90;;;;;;5037791;28;21191;-79
2022/07/25 02:36:26;;;;;;;7.97;6.27;;;21.50;99.90;;;;;;5039229;28;20456;-79
2022/07/25 02:38:53;;;;;;;7.20;6.47;;;21.50;99.90;;;;;;5038534;28;20481;-80
2022/07/25 02:41:19;;;;;;;7.00;6.30;;;21.50;99.90;;;;;;5039115;28;20575;-82
2022/07/25 02:43:46;;;;;;;7.83;6.40;;;21.40;99.90;;;;;;5038341;28;20536;-79
2022/07/25 02:46:15;;;;;;;7.40;6.30;;;21.40;99.90;;;;;;5039029;28;20481;-79
2022/07/25 02:48:42;;;;;;;12.10;6.40;;;21.40;99.90;;;;;;5038034;28;20473;-81
2022/07/25 02:51:08;;;;;;;7.23;5.80;;;21.40;99.90;;;;;;5034642;28;20536;-81
2022/07/25 02:53:35;;;;;;;6.20;5.60;;;21.40;99.90;;;;;;5037326;28;20483;-79
2022/07/25 02:56:02;;;;;;;7.03;5.63;;;21.30;99.90;;;;;;5038227;28;20543;-81
2022/07/25 02:58:29;;;;;;;8.37;5.90;;;21.30;99.90;;;;;;5038899;28;20471;-81
2022/07/25 03:00:56;;;;;;;12.93;6.27;;;21.30;99.90;;;;;;5037766;28;21159;-81
2022/07/25 03:03:24;;;;;;;7.00;6.30;;;21.30;99.90;;;;;;5037781;28;20893;-78
2022/07/25 03:05:51;;;;;;;7.17;6.30;;;21.30;99.90;;;;;;5037972;28;20463;-80
2022/07/25 03:08:18;;;;;;;6.27;5.67;;;21.30;99.90;;;;;;5037881;28;21036;-80
2022/07/25 03:10:45;;;;;;;6.43;5.73;;;21.30;99.90;;;;;;5037830;28;20536;-82
2022/07/25 03:13:11;;;;;;;7.57;6.30;;;21.30;99.90;;;;;;5037772;28;20495;-78
2022/07/25 03:15:38;;;;;;;7.50;6.43;;;21.20;99.90;;;;;;5037884;28;20480;-80
2022/07/25 03:18:05;;;;;;;7.97;5.83;;;21.20;99.90;;;;;;5037620;28;20564;-81
2022/07/25 03:20:33;;;;;;;8.70;6.07;;;21.20;99.90;;;;;;5038309;28;20459;-80
2022/07/25 03:23:00;;;;;;;8.03;5.80;;;21.20;99.90;;;;;;5035734;28;20503;-78
2022/07/25 03:25:27;;;;;;;8.60;7.00;;;21.30;99.90;;;;;;5035944;28;20543;-81
2022/07/25 03:27:55;;;;;;;9.20;6.33;;;21.20;99.90;;;;;;5016976;28;20456;-80
2022/07/25 03:30:22;;;;;;;8.10;7.30;;;21.20;99.90;;;;;;5033147;28;20453;-80
2022/07/25 03:32:49;;;;;;;7.43;6.63;;;21.20;99.90;;;;;;5036588;28;20524;-79
2022/07/25 03:35:16;;;;;;;8.07;6.23;;;21.20;99.90;;;;;;5037676;28;20495;-81
2022/07/25 03:37:44;;;;;;;6.93;6.20;;;21.20;99.90;;;;;;5038017;28;20551;-80
2022/07/25 03:40:13;;;;;;;7.40;6.70;;;21.10;99.90;;;;;;5037712;28;20448;-79
2022/07/25 03:42:40;;;;;;;6.53;5.57;;;21.10;99.90;;;;;;5037622;28;21193;-78
2022/07/25 03:45:08;;;;;;;8.80;6.60;;;21.10;99.90;;;;;;5036621;28;20896;-79
2022/07/25 03:47:35;;;;;;;7.90;7.07;;;21.10;99.90;;;;;;5036885;28;20885;-78
2022/07/25 03:50:02;;;;;;;8.03;6.50;;;21.10;99.90;;;;;;5033134;28;20499;-78
2022/07/25 03:52:29;;;;;;;7.70;6.80;;;21.10;99.90;;;;;;5036882;28;20460;-79
2022/07/25 03:54:57;;;;;;;7.70;6.33;;;21.00;99.90;;;;;;5035342;28;20543;-81
2022/07/25 03:57:24;;;;;;;7.40;6.60;;;21.00;99.90;;;;;;5037841;28;20511;-79
2022/07/25 03:59:51;;;;;;;7.60;6.40;;;21.00;99.90;;;;;;5038127;28;20572;-80
2022/07/25 04:02:18;;;;;;;9.10;6.20;;;21.00;99.90;;;;;;5037260;28;20580;-80
2022/07/25 04:04:45;;;;;;;6.87;6.13;;;21.00;99.90;;;;;;5035075;28;20632;-81
2022/07/25 04:07:12;;;;;;;8.00;6.87;;;21.00;99.90;;;;;;5038163;28;20491;-79
2022/07/25 04:09:39;;;;;;;7.60;6.80;;;21.00;99.90;;;;;;5038291;28;20476;-80
2022/07/25 04:12:07;;;;;;;7.97;6.60;;;21.00;99.90;;;;;;5037896;28;20524;-80
2022/07/25 04:14:34;;;;;;;8.30;6.27;;;21.00;99.90;;;;;;5038753;28;20543;-80
2022/07/25 04:17:01;;;;;;;6.70;6.00;;;21.00;99.90;;;;;;5048347;28;20472;-78
2022/07/25 04:19:28;;;;;;;4.00;3.57;;;21.00;99.90;;;;;;5041611;28;20492;-80
2022/07/25 04:21:55;;;;;;;5.40;4.47;;;21.00;99.90;;;;;;5038416;28;20526;-80
2022/07/25 04:24:22;;;;;;;6.60;5.90;;;21.10;99.90;;;;;;5036966;28;20884;-81
2022/07/25 04:26:49;;;;;;;9.30;5.83;;;21.10;99.90;;;;;;5040572;28;20819;-81
2022/07/25 04:29:17;;;;;;;8.20;6.73;;;21.20;99.90;;;;;;5034624;28;21251;-81
2022/07/25 04:31:44;;;;;;;9.73;6.50;;;21.20;99.90;;;;;;5037036;28;20556;-82
2022/07/25 04:34:10;;;;;;;7.80;6.93;;;21.30;99.90;;;;;;5036273;28;21040;-84
2022/07/25 04:36:37;;;;;;;6.43;5.83;;;21.40;99.90;;;;;;5038930;28;20988;-81
2022/07/25 04:39:04;;;;;;;7.00;6.13;;;21.50;99.90;;;;;;5038900;28;20487;-80
2022/07/25 04:41:31;;;;;;;7.53;5.80;;;21.60;99.90;;;;;;5038895;28;20448;-81
2022/07/25 04:43:58;;;;;;;6.03;5.43;;;21.60;99.90;;;;;;5037450;28;20495;-82
2022/07/25 04:46:26;;;;;;;7.03;6.30;;;21.70;99.90;;;;;;5037965;28;20525;-81
2022/07/25 04:48:53;;;;;;;6.90;5.53;;;21.80;99.90;;;;;;5038691;28;20588;-82
2022/07/25 04:51:20;;;;;;;6.53;5.80;;;21.80;99.90;;;;;;5025979;28;20483;-83
2022/07/25 04:53:47;;;;;;;8.90;6.07;;;22.00;99.90;;;;;;5041307;28;20891;-83
2022/07/25 04:56:14;;;;;;;7.20;6.50;;;22.10;99.90;;;;;;5040437;28;20480;-81
2022/07/25 04:58:41;;;;;;;7.90;6.23;;;22.10;99.90;;;;;;5042204;28;21012;-81
2022/07/25 05:01:08;;;;;;;8.30;6.37;;;22.20;99.90;;;;;;5037495;28;20453;-80
2022/07/25 05:03:36;;;;;;;6.70;5.97;;;22.20;99.90;;;;;;5052239;28;20487;-81
2022/07/25 05:06:03;;;;;;;5.73;5.20;;;22.30;99.90;;;;;;5058355;28;20502;-83
2022/07/25 05:08:30;;;;;;;6.30;5.70;;;22.30;99.90;;;;;;5042477;28;20479;-82
2022/07/25 05:10:57;;;;;;;7.07;6.27;;;22.40;99.90;;;;;;5032564;28;20466;-83
2022/07/25 05:13:25;;;;;;;6.50;5.90;;;22.50;99.90;;;;;;5025351;28;20488;-84
2022/07/25 05:15:52;;;;;;;5.80;5.20;;;22.50;99.90;;;;;;5025988;28;20529;-84
2022/07/25 05:18:20;;;;;;;7.10;5.50;;;22.50;99.90;;;;;;5024507;28;20488;-82
2022/07/25 05:20:49;;;;;;;6.63;5.17;;;22.60;99.90;;;;;;5024978;28;20528;-84
2022/07/25 05:23:16;;;;;;;7.43;5.87;;;22.60;99.90;;;;;;5024720;28;20468;-80
2022/07/25 05:25:42;;;;;;;6.83;5.60;;;22.70;99.90;;;;;;5037934;28;20520;-80
2022/07/25 05:28:09;;;;;;;8.30;5.60;;;22.80;99.90;;;;;;5042081;28;20467;-83
2022/07/25 05:30:36;;;;;;;7.10;6.37;;;22.80;99.90;;;;;;5037596;28;20495;-83
2022/07/25 05:33:03;;;;;;;6.63;5.87;;;22.80;99.90;;;;;;5039531;28;20567;-80
2022/07/25 05:35:30;;;;;;;6.07;5.47;;;22.90;99.90;;;;;;5045259;28;20453;-81
2022/07/25 05:38:00;;;;;;;6.27;5.67;;;23.00;99.90;;;;;;5041168;28;20857;-79
2022/07/25 05:40:27;;;;;;;7.87;6.20;;;23.00;99.90;;;;;;5036267;28;20459;-81
2022/07/25 05:42:53;;;;;;;6.40;5.80;;;23.10;99.90;;;;;;5035491;28;20868;-82
2022/07/25 05:45:20;;;;;;;6.03;5.40;;;23.10;99.90;;;;;;5036852;28;20515;-81
2022/07/25 05:47:47;;;;;;;6.83;5.77;;;23.20;99.90;;;;;;5029160;28;20457;-80
2022/07/25 05:50:14;;;;;;;8.47;7.30;;;23.20;99.90;;;;;;5036112;28;20476;-80
2022/07/25 05:52:41;;;;;;;6.50;5.80;;;23.30;99.90;;;;;;5032625;28;20484;-83
2022/07/25 05:55:11;;;;;;;7.00;5.70;;;23.40;99.90;;;;;;5035803;28;20477;-81
2022/07/25 05:57:38;;;;;;;10.80;6.73;;;23.50;99.90;;;;;;5038541;28;20463;-80
2022/07/25 06:00:08;;;;;;;8.10;5.60;;;23.50;99.90;;;;;;5037541;28;20544;-81
2022/07/25 06:02:39;;;;;;;6.23;5.60;;;23.60;99.90;;;;;;5041003;28;20504;-80
2022/07/25 06:05:07;;;;;;;6.67;5.87;;;23.70;99.90;;;;;;5045920;28;20563;-81
2022/07/25 06:07:34;;;;;;;7.23;5.87;;;23.70;99.90;;;;;;5043284;28;20510;-81
2022/07/25 06:10:01;;;;;;;7.43;5.80;;;23.80;99.90;;;;;;5054709;28;20586;-81
2022/07/25 06:12:35;;;;;;;6.63;5.70;;;23.90;99.90;;;;;;5038616;28;20514;-83
2022/07/25 06:15:02;;;;;;;6.20;5.60;;;24.00;99.90;;;;;;5063920;28;20464;-80
2022/07/25 06:17:29;;;;;;;6.90;6.20;;;24.10;99.90;;;;;;5056905;28;20465;-81
2022/07/25 06:19:59;;;;;;;8.43;6.00;;;24.10;99.90;;;;;;5039072;28;20525;-82
2022/07/25 06:22:25;;;;;;;6.53;5.30;;;24.10;99.90;;;;;;5050730;28;20462;-80
2022/07/25 06:24:52;;;;;;;7.80;5.47;;;24.10;99.90;;;;;;5040628;28;20464;-81
2022/07/25 06:27:19;;;;;;;7.90;4.90;;;24.10;99.90;;;;;;5049430;28;20440;-79
2022/07/25 06:29:51;;;;;;;5.40;4.90;;;24.10;99.90;;;;;;5036110;28;20468;-79
2022/07/25 06:32:17;;;;;;;5.73;4.93;;;24.10;99.90;;;;;;5038492;28;20519;-79
2022/07/25 06:34:45;;;;;;;5.30;4.80;;;24.20;99.90;;;;;;5037093;28;20548;-80
2022/07/25 06:37:11;;;;;;;6.73;4.40;;;24.30;99.90;;;;;;5035082;28;20488;-79
2022/07/25 06:39:38;;;;;;;6.00;5.40;;;24.30;99.90;;;;;;5041484;28;20531;-79
2022/07/25 06:42:05;;;;;;;5.67;4.63;;;24.30;99.90;;;;;;5041488;28;20464;-79
2022/07/25 06:44:44;;;;;;;5.77;5.00;;;24.30;99.90;;;;;;5039696;28;20463;-79
2022/07/25 06:47:13;;;;;;;8.70;5.00;;;24.40;99.90;;;;;;5036879;28;20491;-81
2022/07/25 06:49:40;;;;;;;5.47;4.87;;;24.40;99.90;;;;;;5036575;28;20503;-80
2022/07/25 06:52:07;;;;;;;8.07;5.73;;;24.50;99.90;;;;;;5043608;28;20448;-79
2022/07/25 06:54:35;;;;;;;6.33;5.53;;;24.50;99.90;;;;;;5036473;28;20538;-80
2022/07/25 06:57:01;;;;;;;7.17;5.50;;;24.60;99.90;;;;;;5038197;28;20580;-83
2022/07/25 06:59:28;;;;;;;6.33;5.60;;;24.60;99.90;;;;;;5041607;28;20555;-81
2022/07/25 07:01:55;;;;;;;6.47;5.10;;;24.70;99.90;;;;;;5037925;28;20452;-81
2022/07/25 07:04:23;;;;;;;7.47;4.87;;;24.80;99.90;;;;;;5035398;28;20563;-80
2022/07/25 07:06:50;;;;;;;6.70;5.10;;;24.90;99.90;;;;;;5036399;28;20485;-81
2022/07/25 07:09:18;;;;;;;5.40;4.10;;;25.00;99.90;;;;;;5090213;22;20506;-80
2022/07/25 07:11:45;;;;;;;6.30;5.00;;;25.20;99.90;;;;;;5058646;28;20447;-82
2022/07/25 07:14:12;;;;;;;5.97;4.87;;;25.20;99.90;;;;;;5057856;28;20940;-81
2022/07/25 07:16:41;;;;;;;6.50;5.40;;;25.20;99.90;;;;;;5053345;28;20995;-78
2022/07/25 07:19:09;;;;;;;5.70;5.00;;;25.30;99.90;;;;;;5062579;28;20472;-82
2022/07/25 07:21:38;;;;;;;8.00;5.43;;;25.30;99.90;;;;;;5066211;28;20555;-80
2022/07/25 07:24:05;;;;;;;5.37;4.60;;;25.20;99.90;;;;;;5057206;28;20551;-81
2022/07/25 07:26:32;;;;;;;7.63;4.73;;;25.20;99.90;;;;;;5061513;28;20476;-79
2022/07/25 07:28:59;;;;;;;6.00;4.50;;;25.30;99.90;;;;;;5063428;28;20499;-79
2022/07/25 07:31:26;;;;;;;7.10;4.63;;;25.30;99.90;;;;;;5068602;28;20512;-78
2022/07/25 07:33:53;;;;;;;6.00;5.03;;;25.40;99.90;;;;;;5064479;28;20510;-82
2022/07/25 07:36:20;;;;;;;5.77;4.80;;;25.30;99.90;;;;;;5058897;28;20458;-79
2022/07/25 07:38:56;;;;;;;6.93;5.20;;;25.40;99.90;;;;;;5057132;28;20483;-79
2022/07/25 07:41:23;;;;;;;8.00;5.50;;;25.50;99.90;;;;;;5058590;28;20471;-79
2022/07/25 07:43:59;;;;;;;6.40;5.10;;;25.60;99.90;;;;;;5056491;28;20516;-79
2022/07/25 07:46:25;;;;;;;5.70;5.00;;;25.70;99.90;;;;;;5053418;28;20522;-79
2022/07/25 07:48:52;;;;;;;5.10;4.50;;;25.70;99.90;;;;;;5053485;28;20533;-79
2022/07/25 07:51:19;;;;;;;6.80;5.17;;;25.70;99.90;;;;;;5054391;28;20452;-81
2022/07/25 07:56:32;;;;;;;5.47;4.63;;;25.80;99.90;;;;;;5050180;28;20439;-79
2022/07/25 07:58:58;;;;;;;6.83;5.40;;;26.00;99.90;;;;;;5051661;28;20472;-78
2022/07/25 08:01:25;;;;;;;7.13;5.20;;;26.10;99.90;;;;;;5052637;28;20455;-77
2022/07/25 08:03:52;;;;;;;5.53;4.90;;;26.20;99.90;;;;;;5051802;28;20538;-80
2022/07/25 08:06:19;;;;;;;8.60;4.80;;;26.40;99.90;;;;;;5055308;28;20551;-78
2022/07/25 08:08:47;;;;;;;5.90;5.00;;;26.70;99.90;;;;;;5057598;28;20561;-79
2022/07/25 08:11:14;;;;;;;7.77;5.30;;;27.00;99.90;;;;;;5051989;28;20562;-80
2022/07/25 08:13:41;;;;;;;7.10;5.27;;;27.10;99.90;;;;;;5054386;28;20506;-78
2022/07/25 08:16:10;;;;;;;9.40;6.07;;;27.30;99.90;;;;;;5055920;28;20519;-77
2022/07/25 08:18:40;;;;;;;5.87;4.97;;;27.20;99.90;;;;;;5055839;28;20850;-79
2022/07/25 08:21:07;;;;;;;7.57;5.43;;;27.30;99.90;;;;;;5054466;28;20455;-78
2022/07/25 08:23:40;;;;;;;7.33;5.63;;;27.40;99.90;;;;;;5053667;28;20505;-79
2022/07/25 08:26:08;;;;;;;6.40;5.37;;;27.30;99.90;;;;;;5056525;28;20455;-80
2022/07/25 08:28:35;;;;;;;7.13;5.60;;;27.30;99.90;;;;;;5052187;28;20507;-82
2022/07/25 08:31:02;;;;;;;7.30;5.37;;;27.30;99.90;;;;;;5060211;28;21027;-78
2022/07/25 08:33:30;;;;;;;7.77;5.83;;;27.30;99.90;;;;;;5061554;28;20587;-80
2022/07/25 08:35:57;;;;;;;6.17;4.57;;;27.30;99.90;;;;;;5055443;28;20509;-79
2022/07/25 08:38:26;;;;;;;5.60;4.60;;;27.30;99.90;;;;;;5062925;28;20846;-79
2022/07/25 08:40:55;;;;;;;6.20;5.60;;;27.40;99.90;;;;;;5058533;28;20543;-83
2022/07/25 08:43:23;;;;;;;10.40;5.53;;;27.30;99.90;;;;;;5063285;28;20538;-81
2022/07/25 08:45:52;;;;;;;8.10;5.13;;;27.30;99.90;;;;;;5059137;28;20556;-80
2022/07/25 08:48:20;;;;;;;7.70;5.87;;;27.50;99.90;;;;;;5057600;28;20562;-78
2022/07/25 08:50:48;;;;;;;7.00;6.17;;;27.60;99.90;;;;;;5057470;28;20443;-77
2022/07/25 08:53:17;;;;;;;6.80;5.60;;;27.60;99.90;;;;;;5057285;28;20574;-77
2022/07/25 08:55:45;;;;;;;9.03;4.80;;;27.60;99.90;;;;;;5059506;28;20501;-80
2022/07/25 08:58:14;;;;;;;6.20;4.80;;;27.90;99.90;;;;;;5055572;28;20566;-79
2022/07/25 09:00:43;;;;;;;6.80;4.90;;;28.00;99.90;;;;;;5055751;28;20454;-81
2022/07/25 09:03:10;;;;;;;5.73;4.97;;;28.00;99.90;;;;;;5056201;28;20507;-78
2022/07/25 09:05:48;;;;;;;9.90;5.83;;;27.90;99.90;;;;;;5066250;28;20547;-83
2022/07/25 09:08:18;;;;;;;8.33;5.70;;;27.70;99.90;;;;;;5075616;28;21164;-78
2022/07/25 09:10:47;;;;;;;7.57;5.67;;;27.60;99.90;;;;;;5070376;28;20491;-80
2022/07/25 09:13:14;;;;;;;9.43;5.70;;;27.40;99.90;;;;;;5067168;28;20487;-78
2022/07/25 09:15:47;;;;;;;9.03;5.37;;;27.50;99.90;;;;;;5053939;28;20546;-82
2022/07/25 09:18:16;;;;;;;8.30;5.53;;;27.30;99.90;;;;;;5056411;28;21014;-80
2022/07/25 09:20:45;;;;;;;6.00;5.27;;;27.30;99.90;;;;;;5063977;28;20505;-79
2022/07/25 09:23:14;;;;;;;8.63;4.70;;;27.50;99.90;;;;;;5058058;28;20551;-79
2022/07/25 09:25:43;;;;;;;6.80;6.10;;;27.90;99.90;;;;;;5054428;28;20463;-78
2022/07/25 09:28:11;;;;;;;7.90;5.77;;;28.40;99.90;;;;;;5058331;28;20507;-79
2022/07/25 09:30:39;;;;;;;9.80;4.87;;;28.60;99.90;;;;;;5069193;28;20450;-79
2022/07/25 09:33:07;;;;;;;8.93;5.90;;;29.00;99.90;;;;;;5070923;28;20598;-79
2022/07/25 09:35:37;;;;;;;7.90;5.80;;;29.40;99.90;;;;;;5072925;28;20527;-80
2022/07/25 09:38:09;;;;;;;7.50;5.60;;;29.60;99.90;;;;;;5064362;28;20479;-82
2022/07/25 09:40:36;;;;;;;10.23;5.17;;;29.60;99.90;;;;;;5077147;28;20485;-78
2022/07/25 09:43:03;;;;;;;8.83;6.27;;;28.80;99.90;;;;;;5063491;28;20547;-82
2022/07/25 09:45:30;;;;;;;6.07;4.70;;;28.90;99.90;;;;;;5057842;28;20491;-82
2022/07/25 09:48:00;;;;;;;7.18;5.20;;;29.20;99.90;;;;;;5076666;28;20466;-79
2022/07/25 09:50:30;;;;;;;9.40;5.33;;;29.50;99.90;;;;;;5067360;28;20212;-78
2022/07/25 09:52:59;;;;;;;8.30;6.07;;;29.90;99.90;;;;;;5059995;28;20513;-78
2022/07/25 09:55:26;;;;;;;5.80;5.00;;;30.00;99.90;;;;;;5063890;28;20801;-78
2022/07/25 09:57:53;;;;;;;7.07;4.90;;;30.40;99.90;;;;;;5072599;28;20463;-79
2022/07/25 10:00:22;;;;;;;6.17;5.13;;;30.70;99.90;;;;;;5074728;28;20455;-81
2022/07/25 10:02:55;;;;;;;6.30;4.50;;;31.00;99.90;;;;;;5065114;28;20457;-82
2022/07/25 10:05:38;;;;;;;6.57;5.27;;;30.60;99.90;;;;;;5069219;28;20506;-81
2022/07/25 10:08:07;;;;;;;6.40;5.17;;;30.40;99.90;;;;;;5079608;28;20509;-81
2022/07/25 10:10:38;;;;;;;5.50;4.90;;;30.90;99.90;;;;;;5072103;28;20498;-81
2022/07/25 10:13:09;;;;;;;5.70;5.10;;;31.10;99.90;;;;;;5073081;28;20487;-79
2022/07/25 10:15:41;;;;;;;5.10;4.60;;;30.90;99.90;;;;;;5065747;28;20952;-78
2022/07/25 10:18:08;;;;;;;5.83;5.13;;;31.10;99.90;;;;;;5063363;28;20515;-79
2022/07/25 10:20:37;;;;;;;5.83;5.20;;;30.50;99.90;;;;;;5062505;28;20471;-79
2022/07/25 10:23:08;;;;;;;7.60;5.20;;;30.30;99.90;;;;;;5066126;28;20471;-80
2022/07/25 10:25:35;;;;;;;6.00;4.93;;;29.80;99.90;;;;;;5061136;28;20517;-80
2022/07/25 10:28:09;;;;;;;5.77;4.93;;;29.60;99.90;;;;;;5056365;28;20515;-83
2022/07/25 10:30:39;;;;;;;7.80;5.67;;;29.10;99.90;;;;;;5060457;28;20463;-81
2022/07/25 10:33:13;;;;;;;6.17;5.30;;;28.60;99.90;;;;;;5062352;28;20556;-82
2022/07/25 10:35:43;;;;;;;5.63;4.70;;;28.30;99.90;;;;;;5056120;28;20463;-81
2022/07/25 10:38:11;;;;;;;7.30;5.77;;;28.20;99.90;;;;;;5059485;28;20507;-81
2022/07/25 10:40:39;;;;;;;6.30;5.67;;;28.00;99.90;;;;;;5061064;28;21024;-78
2022/07/25 10:43:12;;;;;;;7.33;5.10;;;28.00;99.90;;;;;;5052499;28;20535;-80
2022/07/25 10:45:42;;;;;;;8.00;6.10;;;28.00;99.90;;;;;;5049789;28;20479;-81
2022/07/25 10:48:20;;;;;;;7.00;4.93;;;28.10;99.90;;;;;;5054161;28;20555;-82
2022/07/25 10:50:50;;;;;;;6.80;5.93;;;28.00;99.90;;;;;;5052269;28;20891;-80
2022/07/25 10:53:33;;;;;;;6.60;5.43;;;28.00;99.90;;;;;;5058444;28;20528;-79
2022/07/25 10:56:04;;;;;;;7.90;5.70;;;27.90;99.90;;;;;;5056432;28;20467;-80
2022/07/25 10:58:42;;;;;;;7.53;5.80;;;27.80;99.90;;;;;;5053602;28;20554;-80
2022/07/25 11:01:09;;;;;;;8.77;6.53;;;28.30;99.90;;;;;;5049238;28;20476;-81
2022/07/25 11:03:36;;;;;;;7.80;6.10;;;28.80;99.90;;;;;;5053349;28;20444;-80
2022/07/25 11:06:05;;;;;;;6.80;6.10;;;29.30;99.90;;;;;;5059848;28;20479;-78
2022/07/25 11:08:33;;;;;;;7.27;5.50;;;29.90;99.90;;;;;;5053882;28;20566;-79
2022/07/25 11:11:02;;;;;;;8.23;5.37;;;30.30;99.90;;;;;;5055712;28;20539;-78
2022/07/25 11:13:29;;;;;;;7.20;5.97;;;30.40;99.90;;;;;;5047626;28;20459;-78
2022/07/25 11:15:59;;;;;;;8.17;5.07;;;30.80;99.90;;;;;;5050850;28;20478;-80
2022/07/25 11:18:34;;;;;;;6.20;4.83;;;31.00;99.90;;;;;;5057228;28;20475;-80
2022/07/25 11:21:01;;;;;;;6.80;5.20;;;31.30;99.90;;;;;;5057402;28;20479;-80
2022/07/25 11:23:30;;;;;;;6.80;5.07;;;31.40;99.90;;;;;;5059349;28;20488;-81
2022/07/25 11:26:08;;;;;;;5.80;4.93;;;31.50;99.90;;;;;;5063558;28;20459;-78
2022/07/25 11:28:42;;;;;;;7.17;5.53;;;31.90;99.90;;;;;;5059835;28;20474;-77
2022/07/25 11:31:10;;;;;;;9.83;4.70;;;32.10;99.90;;;;;;5047931;28;20444;-77
2022/07/25 11:33:39;;;;;;;5.50;4.63;;;32.00;99.90;;;;;;5052159;28;20444;-80
2022/07/25 11:36:07;;;;;;;7.57;4.47;;;32.10;99.90;;;;;;5061133;28;21141;-77
2022/07/25 11:38:36;;;;;;;6.60;4.60;;;32.10;99.90;;;;;;5054334;28;20467;-78
2022/07/25 11:41:03;;;;;;;4.90;3.70;;;31.90;99.90;;;;;;5054199;28;20487;-77
2022/07/25 11:43:30;;;;;;;5.03;4.40;;;32.20;99.90;;;;;;5046194;28;20452;-79
2022/07/25 11:45:59;;;;;;;5.57;4.40;;;32.30;99.90;;;;;;5047061;28;20455;-79
2022/07/25 11:48:32;;;;;;;6.10;4.30;;;32.20;99.90;;;;;;5048902;28;20478;-79
2022/07/25 11:51:08;;;;;;;5.50;4.67;;;31.80;99.90;;;;;;5051245;28;20533;-77
2022/07/25 11:53:44;;;;;;;7.70;4.67;;;31.80;99.90;;;;;;5056661;28;20584;-78
2022/07/25 11:56:16;;;;;;;5.20;3.77;;;31.80;99.90;;;;;;5046089;28;20578;-80
2022/07/25 11:58:44;;;;;;;4.87;3.67;;;32.40;99.90;;;;;;5046462;28;20872;-81
2022/07/25 12:01:14;;;;;;;6.37;4.17;;;32.70;99.90;;;;;;5050494;28;20470;-78
2022/07/25 12:03:42;;;;;;;6.50;4.20;;;32.30;99.90;;;;;;5050540;28;20510;-80
2022/07/25 12:06:10;;;;;;;6.50;4.60;;;31.80;99.90;;;;;;5061416;28;20459;-78
2022/07/25 12:08:40;;;;;;;5.60;3.80;;;31.40;99.90;;;;;;5060792;28;20578;-80
2022/07/25 12:11:18;;;;;;;5.97;3.63;;;31.10;99.90;;;;;;5057635;28;20455;-78
2022/07/25 12:13:45;;;;;;;8.07;4.17;;;30.80;99.90;;;;;;5051517;28;20462;-79
2022/07/25 12:16:12;;;;;;;4.60;3.43;;;30.50;99.90;;;;;;5054687;28;20535;-79
2022/07/25 12:18:39;;;;;;;7.60;4.20;;;30.80;99.90;;;;;;5051465;28;20554;-78
2022/07/25 12:21:08;;;;;;;4.57;3.40;;;31.30;99.90;;;;;;5050752;28;20483;-80
2022/07/25 12:23:36;;;;;;;4.40;3.73;;;31.10;99.90;;;;;;5048349;28;20527;-80
2022/07/25 12:26:05;;;;;;;4.20;3.53;;;30.60;99.90;;;;;;5056106;28;20460;-79
2022/07/25 12:28:31;;;;;;;4.40;3.90;;;30.70;99.90;;;;;;5056627;28;20482;-78
2022/07/25 12:30:58;;;;;;;4.43;3.30;;;31.20;99.90;;;;;;5058317;28;20911;-79
2022/07/25 12:33:25;;;;;;;6.93;3.93;;;31.30;99.90;;;;;;5052123;28;20464;-78
2022/07/25 12:35:52;;;;;;;4.53;2.77;;;31.40;99.90;;;;;;5062605;28;20696;-78
2022/07/25 12:38:19;;;;;;;6.13;3.80;;;31.30;99.90;;;;;;5050707;28;20477;-79
2022/07/25 12:40:52;;;;;;;5.13;3.33;;;31.30;99.90;;;;;;5046221;28;20544;-79
2022/07/25 12:43:21;;;;;;;6.83;4.10;;;31.20;99.90;;;;;;5048393;28;21301;-80
2022/07/25 12:45:49;;;;;;;4.37;3.00;;;31.00;99.90;;;;;;5047274;28;20459;-80
2022/07/25 12:48:16;;;;;;;7.20;3.77;;;30.50;99.90;;;;;;5051158;28;20537;-80
2022/07/25 12:50:43;;;;;;;8.90;3.90;;;30.30;99.90;;;;;;5052866;28;20551;-79
2022/07/25 12:53:12;;;;;;;4.87;3.00;;;30.60;99.90;;;;;;5046114;28;20543;-77